Time;durP1;ratioP1;P1;durP2;ratioP2;P2;SDS_P1;SDS_P2;PMS_P1;PMS_P2;Temp;Humidity;BMP_temperature;BMP_pressure;BME280_temperature;BME280_humidity;BME280_pressure;Samples;Min_cycle;Max_cycle;Signal;HPM_P1;HPM_P2
2022/07/10 00:00:36;;;;;;;9.85;0.60;;;;;;;18.37;46.64;102107.69;5175395;28;20049;-78
2022/07/10 00:03:38;;;;;;;0.25;0.25;;;;;;;18.23;47.13;102108.22;5089519;28;20048;-78
2022/07/10 00:06:49;;;;;;;0.22;0.22;;;;;;;18.31;47.44;102099.97;5150101;28;20484;-78
2022/07/10 00:09:24;;;;;;;0.32;0.32;;;;;;;18.29;47.85;102108.94;5165306;28;20029;-78
2022/07/10 00:12:05;;;;;;;0.57;0.52;;;;;;;18.31;47.77;102107.06;5168345;28;20117;-79
2022/07/10 00:15:12;;;;;;;0.25;0.25;;;;;;;18.20;47.13;102099.50;5162042;28;20037;-78
2022/07/10 00:18:16;;;;;;;0.50;0.50;;;;;;;18.17;47.24;102099.63;5162742;28;20041;-78
2022/07/10 00:21:10;;;;;;;0.30;0.30;;;;;;;18.14;47.24;102111.22;5146988;28;20143;-78
2022/07/10 00:23:54;;;;;;;4.20;1.05;;;;;;;18.11;47.24;102103.38;5160730;28;20035;-78
2022/07/10 00:26:47;;;;;;;;;;;;;;;;;;;;;
2022/07/10 00:29:49;;;;;;;0.20;0.20;;;;;;;18.09;47.40;102102.56;5199685;28;20397;-78
2022/07/10 00:32:37;;;;;;;1.00;0.63;;;;;;;18.11;48.14;102099.84;5162365;28;20643;-78
2022/07/10 00:35:11;;;;;;;0.20;0.20;;;;;;;18.05;47.68;102095.66;5191134;28;20026;-78
2022/07/10 00:37:42;;;;;;;0.30;0.30;;;;;;;18.01;47.12;102089.59;5175154;28;20052;-78
2022/07/10 00:40:12;;;;;;;1.45;0.88;;;;;;;17.98;47.82;102091.44;5187984;28;20638;-79
2022/07/10 00:42:45;;;;;;;;;;;;;;;17.99;47.31;102095.84;5190778;28;20464;-78
2022/07/10 00:45:16;;;;;;;0.10;0.10;;;;;;;17.94;48.11;102088.91;5210641;28;19917;-78
2022/07/10 00:47:47;;;;;;;0.40;0.40;;;;;;;17.90;47.89;102095.22;5194616;28;20042;-78
2022/07/10 00:50:17;;;;;;;0.43;0.43;;;;;;;17.92;47.91;102089.88;5200075;28;20060;-78
2022/07/10 00:52:48;;;;;;;0.28;0.28;;;;;;;17.89;48.26;102097.94;5193912;28;20045;-78
2022/07/10 00:55:18;;;;;;;0.20;0.20;;;;;;;17.88;48.00;102080.28;5179420;28;20116;-78
2022/07/10 00:57:52;;;;;;;;;;;;;;;17.85;47.98;102078.59;5179407;28;20091;-78
2022/07/10 01:00:23;;;;;;;0.22;0.22;;;;;;;17.88;47.89;102082.94;5195802;28;19936;-78
2022/07/10 01:02:54;;;;;;;0.20;0.20;;;;;;;17.80;48.19;102080.56;5189424;28;20095;-78
2022/07/10 01:05:24;;;;;;;1.23;0.60;;;;;;;17.81;48.10;102074.31;5195040;28;20037;-78
2022/07/10 01:07:55;;;;;;;0.20;0.20;;;;;;;17.83;48.92;102072.47;5193120;28;20049;-78
2022/07/10 01:10:26;;;;;;;0.65;0.65;;;;;;;17.81;48.30;102066.34;5194445;28;20132;-78
2022/07/10 01:12:56;;;;;;;2.58;1.05;;;;;;;17.77;48.17;102067.41;5176296;28;20103;-78
2022/07/10 01:15:27;;;;;;;0.45;0.45;;;;;;;17.74;48.72;102071.03;5193624;28;20038;-78
2022/07/10 01:17:58;;;;;;;2.50;0.63;;;;;;;17.73;48.16;102065.75;5189326;28;20029;-78
2022/07/10 01:20:33;;;;;;;0.20;0.20;;;;;;;17.72;48.55;102056.94;5183951;28;20541;-78
2022/07/10 01:23:03;;;;;;;0.20;0.20;;;;;;;17.71;48.26;102059.66;5190135;28;20044;-78
2022/07/10 01:25:34;;;;;;;0.40;0.40;;;;;;;17.67;48.89;102058.91;5194042;28;20022;-78
2022/07/10 01:28:05;;;;;;;4.70;2.05;;;;;;;17.69;48.04;102065.00;5195863;28;20064;-78
2022/07/10 01:30:36;;;;;;;0.25;0.25;;;;;;;17.68;48.11;102065.06;5179360;28;20029;-78
2022/07/10 01:33:08;;;;;;;0.20;0.20;;;;;;;17.65;48.55;102060.75;5189140;28;20029;-78
2022/07/10 01:35:39;;;;;;;0.77;0.47;;;;;;;17.66;48.52;102053.63;5144152;28;20041;-78
2022/07/10 01:38:10;;;;;;;0.68;0.65;;;;;;;17.64;48.88;102052.84;5193056;28;20563;-78
2022/07/10 01:40:43;;;;;;;0.40;0.40;;;;;;;17.61;48.54;102049.38;5193590;28;20029;-78
2022/07/10 01:43:13;;;;;;;0.30;0.30;;;;;;;17.58;48.83;102051.25;5193650;28;20505;-78
2022/07/10 01:45:44;;;;;;;1.13;0.50;;;;;;;17.59;49.67;102045.03;5175865;28;20112;-78
2022/07/10 01:48:14;;;;;;;0.35;0.35;;;;;;;17.58;49.41;102049.47;5154033;28;20578;-78
2022/07/10 01:50:45;;;;;;;0.90;0.90;;;;;;;17.58;50.20;102046.81;5193774;28;20045;-78
2022/07/10 01:53:16;;;;;;;0.95;0.88;;;;;;;17.54;49.67;102039.91;5195201;28;20307;-78
2022/07/10 01:55:46;;;;;;;0.60;0.60;;;;;;;17.55;49.13;102046.94;5173923;28;20034;-79
2022/07/10 01:58:17;;;;;;;1.20;0.75;;;;;;;17.56;48.86;102040.69;5183714;28;20065;-78
2022/07/10 02:00:47;;;;;;;0.20;0.20;;;;;;;17.57;48.75;102037.13;5187501;28;20035;-78
2022/07/10 02:06:09;;;;;;;0.30;0.30;;;;;;;17.55;49.04;102038.97;5176488;28;20819;-79
2022/07/10 02:08:43;;;;;;;1.08;1.08;;;;;;;17.56;48.92;102030.06;5194278;28;20032;-78
2022/07/10 02:11:17;;;;;;;0.35;0.35;;;;;;;17.55;48.96;102028.38;5191143;28;20060;-78
2022/07/10 02:13:47;;;;;;;0.20;0.20;;;;;;;17.55;48.99;102044.28;5194881;28;20105;-78
2022/07/10 02:16:18;;;;;;;0.20;0.20;;;;;;;17.57;49.06;102031.81;5191460;28;20553;-78
2022/07/10 02:18:48;;;;;;;0.35;0.35;;;;;;;17.54;49.06;102029.28;5194415;28;20410;-78
2022/07/10 02:21:19;;;;;;;0.30;0.30;;;;;;;17.55;48.92;102022.19;5188321;28;20707;-78
2022/07/10 02:23:49;;;;;;;0.73;0.73;;;;;;;17.56;49.21;102022.09;5194013;28;20037;-78
2022/07/10 02:26:19;;;;;;;0.38;0.38;;;;;;;17.53;49.20;102018.69;5190529;28;20132;-78
2022/07/10 02:28:50;;;;;;;0.22;0.22;;;;;;;17.52;49.11;102017.84;5174653;28;20069;-78
2022/07/10 02:31:21;;;;;;;0.30;0.30;;;;;;;17.51;49.39;102018.75;5189793;28;20040;-78
2022/07/10 02:33:51;;;;;;;0.40;0.40;;;;;;;17.51;49.03;102021.41;5195778;28;20031;-78
2022/07/10 02:36:22;;;;;;;0.75;0.75;;;;;;;17.50;49.09;102026.78;5196491;28;20046;-78
2022/07/10 02:38:52;;;;;;;0.20;0.20;;;;;;;17.47;49.08;102019.81;5196760;28;20041;-78
2022/07/10 02:41:23;;;;;;;0.20;0.20;;;;;;;17.45;49.39;102032.25;5189891;28;20038;-78
2022/07/10 02:43:53;;;;;;;1.75;0.82;;;;;;;17.45;49.45;102022.50;5181083;28;20025;-78
2022/07/10 02:46:24;;;;;;;0.30;0.30;;;;;;;17.46;49.30;102023.38;5195757;28;20113;-78
2022/07/10 02:48:56;;;;;;;1.25;1.15;;;;;;;17.43;49.27;102028.78;5200491;28;20045;-78
2022/07/10 02:51:26;;;;;;;0.30;0.30;;;;;;;17.40;49.09;102023.56;5179568;28;20340;-78
2022/07/10 02:53:58;;;;;;;0.20;0.20;;;;;;;17.38;49.14;102031.59;5178491;28;20029;-78
2022/07/10 02:56:28;;;;;;;0.30;0.30;;;;;;;17.37;49.42;102023.69;5187412;28;20107;-78
2022/07/10 02:58:59;;;;;;;0.40;0.40;;;;;;;17.36;49.41;102021.97;5178959;28;20617;-78
2022/07/10 03:01:29;;;;;;;0.30;0.30;;;;;;;17.33;49.54;102022.94;5170653;28;20046;-77
2022/07/10 03:04:01;;;;;;;0.20;0.20;;;;;;;17.34;49.32;102018.50;5198385;28;20025;-78
2022/07/10 03:06:31;;;;;;;0.20;0.20;;;;;;;17.30;50.58;102018.63;5186850;28;20326;-78
2022/07/10 03:09:02;;;;;;;0.20;0.20;;;;;;;17.26;50.19;102027.59;5196820;28;20124;-79
2022/07/10 03:11:35;;;;;;;0.40;0.40;;;;;;;17.22;50.25;102030.41;5166446;28;20175;-78
2022/07/10 03:14:07;;;;;;;0.20;0.20;;;;;;;17.25;49.88;102031.16;5204509;28;20044;-78
2022/07/10 03:16:38;;;;;;;0.60;0.60;;;;;;;17.22;49.87;102025.97;5191396;28;20041;-78
2022/07/10 03:19:09;;;;;;;0.40;0.40;;;;;;;17.21;49.91;102034.84;5198347;28;20029;-78
2022/07/10 03:21:42;;;;;;;0.73;0.73;;;;;;;17.20;50.22;102027.81;5197362;28;20046;-78
2022/07/10 03:24:13;;;;;;;1.00;0.95;;;;;;;17.20;50.32;102027.81;5178598;28;20583;-78
2022/07/10 03:26:44;;;;;;;20.85;2.65;;;;;;;17.13;50.25;102031.59;5189876;28;20116;-78
2022/07/10 03:29:15;;;;;;;0.20;0.20;;;;;;;17.14;50.79;102033.31;5181731;28;20037;-78
2022/07/10 03:31:46;;;;;;;1.13;0.40;;;;;;;17.08;50.68;102025.56;5190989;28;20038;-78
2022/07/10 03:34:19;;;;;;;0.35;0.35;;;;;;;17.05;51.78;102025.66;5178714;28;20810;-79
2022/07/10 03:36:51;;;;;;;0.40;0.40;;;;;;;17.05;50.35;102015.06;5163187;28;20046;-79
2022/07/10 03:39:22;;;;;;;0.30;0.30;;;;;;;17.07;50.21;102015.84;5196600;28;20126;-78
2022/07/10 03:41:52;;;;;;;1.73;0.82;;;;;;;17.04;50.88;102022.13;5195779;28;20120;-78
2022/07/10 03:44:23;;;;;;;0.20;0.20;;;;;;;17.04;50.40;102022.13;5192796;28;20057;-78
2022/07/10 03:46:53;;;;;;;0.40;0.40;;;;;;;17.02;50.11;102029.31;5178380;28;20061;-78
2022/07/10 03:49:24;;;;;;;3.40;0.60;;;;;;;17.01;50.36;102021.38;5196315;28;20041;-78
2022/07/10 03:51:54;;;;;;;1.48;1.20;;;;;;;17.02;50.73;102021.34;5196773;28;20164;-78
2022/07/10 03:54:25;;;;;;;1.40;1.33;;;;;;;16.96;51.27;102027.72;5176871;28;20037;-78
2022/07/10 03:59:48;;;;;;;0.38;0.38;;;;;;;16.99;50.54;102024.09;5191349;28;20499;-78
2022/07/10 04:02:19;;;;;;;0.20;0.20;;;;;;;16.98;50.48;102023.19;5171860;28;20068;-78
2022/07/10 04:04:49;;;;;;;0.30;0.30;;;;;;;16.96;50.57;102024.19;5195396;28;20042;-78
2022/07/10 04:07:20;;;;;;;0.35;0.35;;;;;;;16.95;50.96;102031.28;5179564;28;20076;-78
2022/07/10 04:09:50;;;;;;;0.20;0.20;;;;;;;16.94;50.35;102021.59;5178649;28;20061;-78
2022/07/10 04:12:21;;;;;;;2.20;1.00;;;;;;;16.94;50.47;102026.88;5191946;28;20064;-78
2022/07/10 04:14:52;;;;;;;1.80;0.82;;;;;;;16.92;51.02;102026.03;5176811;28;20064;-78
2022/07/10 04:17:22;;;;;;;0.57;0.57;;;;;;;16.85;51.08;102021.84;5180543;28;20072;-78
2022/07/10 04:19:53;;;;;;;0.20;0.20;;;;;;;16.83;51.04;102021.91;5199959;28;20040;-78
2022/07/10 04:22:23;;;;;;;0.68;0.68;;;;;;;16.89;51.20;102022.63;5194584;28;20053;-78
2022/07/10 04:24:54;;;;;;;0.35;0.35;;;;;;;16.90;52.40;102025.22;5190940;28;20189;-78
2022/07/10 04:27:25;;;;;;;0.30;0.30;;;;;;;16.83;51.37;102021.03;5185338;28;20065;-79
2022/07/10 04:29:56;;;;;;;0.52;0.52;;;;;;;16.82;51.52;102022.81;5190491;28;20073;-79
2022/07/10 04:32:30;;;;;;;0.52;0.52;;;;;;;16.84;52.44;102028.94;5194790;28;20049;-78
2022/07/10 04:35:01;;;;;;;0.70;0.70;;;;;;;16.77;53.77;102030.06;5195120;28;20061;-79
2022/07/10 04:37:31;;;;;;;0.43;0.43;;;;;;;16.72;52.45;102028.47;5192029;28;20672;-78
2022/07/10 04:40:05;;;;;;;0.45;0.45;;;;;;;16.73;52.48;102032.88;5197605;28;20033;-78
2022/07/10 04:42:38;;;;;;;0.82;0.82;;;;;;;16.76;52.43;102027.44;5180961;28;20052;-78
2022/07/10 04:45:11;;;;;;;0.40;0.40;;;;;;;16.77;53.25;102031.84;5173879;28;20026;-78
2022/07/10 04:47:42;;;;;;;0.30;0.30;;;;;;;16.66;53.21;102027.75;5194907;28;20777;-78
2022/07/10 04:50:12;;;;;;;0.30;0.30;;;;;;;16.73;52.24;102040.81;5196268;28;20033;-78
2022/07/10 04:52:43;;;;;;;0.50;0.50;;;;;;;16.73;52.88;102030.22;5193077;28;20099;-78
2022/07/10 04:55:13;;;;;;;0.30;0.30;;;;;;;16.67;53.52;102037.44;5175225;28;20037;-78
2022/07/10 04:57:44;;;;;;;0.65;0.65;;;;;;;16.70;52.74;102043.56;5194786;28;20048;-78
2022/07/10 05:00:21;;;;;;;0.32;0.32;;;;;;;16.73;54.20;102038.16;5190146;28;20041;-79
2022/07/10 05:02:54;;;;;;;0.30;0.30;;;;;;;16.62;54.82;102036.72;5127161;28;20046;-78
2022/07/10 05:05:24;;;;;;;0.30;0.30;;;;;;;16.70;53.72;102038.25;5202491;28;20028;-79
2022/07/10 05:07:55;;;;;;;0.47;0.47;;;;;;;16.72;53.22;102031.13;5195432;28;20551;-78
2022/07/10 05:10:27;;;;;;;0.50;0.50;;;;;;;16.72;52.79;102039.09;5180332;28;20037;-79
2022/07/10 05:12:57;;;;;;;0.52;0.50;;;;;;;16.73;54.05;102033.72;5215289;28;20049;-79
2022/07/10 05:15:28;;;;;;;0.22;0.22;;;;;;;16.77;54.44;102035.38;5189987;28;20088;-79
2022/07/10 05:17:58;;;;;;;0.95;0.90;;;;;;;16.71;54.55;102040.00;5178220;28;20037;-78
2022/07/10 05:20:29;;;;;;;0.20;0.20;;;;;;;16.74;53.38;102042.53;5190136;28;20453;-78
2022/07/10 05:22:59;;;;;;;2.13;0.95;;;;;;;16.74;53.73;102039.88;5176212;28;20033;-78
2022/07/10 05:25:30;;;;;;;0.55;0.55;;;;;;;16.70;54.21;102030.31;5194197;28;20038;-78
2022/07/10 05:28:00;;;;;;;0.30;0.30;;;;;;;16.74;54.78;102027.50;5191226;28;20073;-78
2022/07/10 05:30:31;;;;;;;0.30;0.30;;;;;;;16.73;53.47;102027.56;5191201;28;20033;-78
2022/07/10 05:33:02;;;;;;;0.20;0.20;;;;;;;16.77;52.95;102026.53;5187650;28;20533;-78
2022/07/10 05:35:33;;;;;;;0.32;0.32;;;;;;;16.76;53.97;102044.25;5160555;28;20041;-79
2022/07/10 05:38:06;;;;;;;0.40;0.40;;;;;;;16.81;54.29;102046.75;5189736;28;20125;-78
2022/07/10 05:40:36;;;;;;;0.68;0.68;;;;;;;16.85;54.01;102045.72;5197159;28;20448;-81
2022/07/10 05:43:07;;;;;;;0.30;0.30;;;;;;;16.85;55.02;102051.00;5166756;28;20046;-77
2022/07/10 05:45:38;;;;;;;0.30;0.30;;;;;;;16.92;54.33;102044.59;5192095;28;20022;-81
2022/07/10 05:48:10;;;;;;;0.20;0.20;;;;;;;16.88;56.27;102053.56;5179605;28;20039;-78
2022/07/10 05:50:40;;;;;;;0.20;0.20;;;;;;;16.87;54.61;102057.13;5193574;28;20648;-80
2022/07/10 05:53:11;;;;;;;0.65;0.65;;;;;;;16.90;55.41;102057.03;5176471;28;20152;-80
2022/07/10 05:55:41;;;;;;;0.50;0.50;;;;;;;16.81;56.08;102060.84;5185122;28;20056;-80
2022/07/10 05:58:15;;;;;;;0.30;0.30;;;;;;;16.87;54.74;102059.78;5182087;28;20473;-78
2022/07/10 06:00:46;;;;;;;0.30;0.30;;;;;;;16.88;55.79;102050.94;5197921;28;20694;-78
2022/07/10 06:03:17;;;;;;;2.22;0.75;;;;;;;16.87;54.39;102050.94;5191072;28;20044;-80
2022/07/10 06:05:47;;;;;;;0.70;0.70;;;;;;;16.89;54.66;102050.00;5171521;28;20125;-80
2022/07/10 06:08:20;;;;;;;0.30;0.30;;;;;;;16.88;55.63;102048.28;5178365;28;20056;-79
2022/07/10 06:10:51;;;;;;;0.20;0.20;;;;;;;16.92;55.01;102049.03;5166750;28;20053;-78
2022/07/10 06:13:25;;;;;;;0.20;0.20;;;;;;;16.89;55.62;102042.06;5182865;28;20084;-81
2022/07/10 06:15:56;;;;;;;0.35;0.30;;;;;;;16.93;55.25;102045.50;5176238;28;20039;-79
2022/07/10 06:18:26;;;;;;;5.40;1.58;;;;;;;16.94;55.95;102042.81;5195048;28;20085;-80
2022/07/10 06:20:57;;;;;;;0.52;0.52;;;;;;;16.93;55.60;102045.50;5181380;28;20120;-80
2022/07/10 06:23:28;;;;;;;0.30;0.30;;;;;;;17.02;55.45;102054.94;5166654;28;20414;-82
2022/07/10 06:25:58;;;;;;;0.30;0.30;;;;;;;17.02;56.10;102054.94;5174944;28;20183;-81
2022/07/10 06:28:29;;;;;;;0.20;0.20;;;;;;;17.12;55.43;102062.53;5191820;28;20415;-81
2022/07/10 06:31:29;;;;;;;0.57;0.57;;;;;;;17.04;56.18;102053.09;5188136;28;20053;-81
2022/07/10 06:34:20;;;;;;;1.60;1.50;;;;;;;17.12;54.66;102061.66;5178253;28;20088;-80
2022/07/10 06:37:21;;;;;;;0.20;0.20;;;;;;;17.15;55.60;102053.59;5195739;28;20041;-81
2022/07/10 06:39:54;;;;;;;0.60;0.60;;;;;;;17.14;54.97;102050.09;5187789;28;20331;-79
2022/07/10 06:42:28;;;;;;;0.45;0.45;;;;;;;17.21;55.08;102053.41;5191706;28;20441;-79
2022/07/10 06:44:58;;;;;;;0.20;0.20;;;;;;;17.21;55.62;102061.38;5176598;28;20038;-79
2022/07/10 06:50:34;;;;;;;0.50;0.50;;;;;;;17.24;55.83;102057.75;5196734;28;20555;-78
2022/07/10 06:53:08;;;;;;;0.20;0.20;;;;;;;17.18;56.44;102056.16;5197336;28;20045;-80
2022/07/10 06:55:41;;;;;;;6.60;1.48;;;;;;;17.21;55.65;102057.81;5203444;28;20033;-81
2022/07/10 06:58:11;;;;;;;0.63;0.63;;;;;;;17.19;55.51;102051.72;5182373;28;20045;-80
2022/07/10 07:00:42;;;;;;;0.32;0.32;;;;;;;17.22;55.10;102057.81;5191198;28;20096;-77
2022/07/10 07:03:12;;;;;;;0.60;0.60;;;;;;;17.29;55.70;102064.63;5193258;28;20494;-79
2022/07/10 07:05:43;;;;;;;0.43;0.43;;;;;;;17.29;56.08;102064.63;5202496;28;20042;-80
2022/07/10 07:08:13;;;;;;;0.38;0.38;;;;;;;17.38;55.39;102063.44;5177455;28;20251;-76
2022/07/10 07:10:44;;;;;;;0.30;0.30;;;;;;;17.37;54.94;102056.38;5174871;28;20030;-78
2022/07/10 07:13:15;;;;;;;0.30;0.30;;;;;;;17.30;55.04;102063.72;5185559;28;20021;-78
2022/07/10 07:15:53;;;;;;;4.95;1.15;;;;;;;17.34;54.86;102066.25;5188825;28;20276;-79
2022/07/10 07:18:31;;;;;;;0.30;0.30;;;;;;;17.33;55.77;102069.81;5198738;28;20037;-79
2022/07/10 07:23:54;;;;;;;2.60;0.75;;;;;;;17.39;55.50;102065.16;5189784;28;20029;-79
2022/07/10 07:26:25;;;;;;;0.35;0.35;;;;;;;17.43;54.66;102060.63;5182317;28;20320;-80
2022/07/10 07:28:57;;;;;;;;;;;;;;;17.51;54.70;102060.38;5196312;28;20034;-80
2022/07/10 07:31:30;;;;;;;0.20;0.20;;;;;;;17.46;54.96;102060.53;5190671;28;19921;-80
2022/07/10 07:34:01;;;;;;;0.30;0.30;;;;;;;17.50;54.65;102055.97;5180543;28;20067;-81
2022/07/10 07:36:43;;;;;;;0.20;0.20;;;;;;;17.55;54.95;102065.50;5159363;28;20052;-81
2022/07/10 07:39:16;;;;;;;0.35;0.35;;;;;;;17.57;54.86;102058.34;5182843;28;20310;-80
2022/07/10 07:41:46;;;;;;;0.32;0.32;;;;;;;17.61;54.82;102062.63;5189063;28;20050;-80
2022/07/10 07:44:17;;;;;;;0.40;0.40;;;;;;;17.64;54.96;102063.47;5163583;28;20056;-77
2022/07/10 07:46:48;;;;;;;0.20;0.20;;;;;;;17.65;55.47;102065.16;5174203;28;20285;-77
2022/07/10 07:49:18;;;;;;;0.20;0.20;;;;;;;17.67;54.98;102071.28;5191093;28;20033;-78
2022/07/10 07:51:49;;;;;;;1.05;0.95;;;;;;;17.68;54.83;102075.69;5196354;28;20279;-79
2022/07/10 07:54:22;;;;;;;0.73;0.57;;;;;;;17.69;54.96;102075.63;5194125;28;20108;-79
2022/07/10 07:56:52;;;;;;;0.40;0.40;;;;;;;17.73;54.24;102066.63;5198041;28;20050;-79
2022/07/10 07:59:23;;;;;;;0.20;0.20;;;;;;;17.71;54.35;102064.97;5201850;28;20134;-81
2022/07/10 08:01:53;;;;;;;0.93;0.73;;;;;;;17.72;54.14;102061.41;5195517;28;20040;-80
2022/07/10 08:04:24;;;;;;;0.30;0.30;;;;;;;17.74;55.09;102067.50;5190240;28;20521;-79
2022/07/10 08:06:54;;;;;;;0.30;0.30;;;;;;;17.74;55.52;102078.09;5177618;28;20580;-79
2022/07/10 08:09:25;;;;;;;0.20;0.20;;;;;;;17.75;55.59;102071.88;5189251;28;20445;-79
2022/07/10 08:11:55;;;;;;;0.30;0.30;;;;;;;17.74;55.08;102063.06;5177261;28;20041;-79
2022/07/10 08:14:26;;;;;;;0.20;0.20;;;;;;;17.74;55.00;102059.53;5176801;28;20350;-80
2022/07/10 08:16:57;;;;;;;0.80;0.80;;;;;;;17.79;54.70;102057.59;5190819;28;20293;-79
2022/07/10 08:19:27;;;;;;;0.50;0.50;;;;;;;17.87;54.15;102054.66;5175702;28;20049;-79
2022/07/10 08:21:58;;;;;;;0.57;0.57;;;;;;;17.90;54.25;102052.75;5157951;28;20040;-80
2022/07/10 08:24:28;;;;;;;0.25;0.25;;;;;;;17.95;54.42;102052.56;5200789;28;20044;-82
2022/07/10 08:27:08;;;;;;;;;;;;;;;17.99;55.07;102053.34;5200520;28;20037;-80
2022/07/10 08:29:38;;;;;;;0.38;0.38;;;;;;;17.99;55.30;102058.66;5192750;28;19917;-80
2022/07/10 08:32:18;;;;;;;1.05;0.98;;;;;;;18.12;54.89;102059.97;5193327;28;20041;-81
2022/07/10 08:34:49;;;;;;;0.93;0.88;;;;;;;18.14;54.91;102055.44;5194523;28;20116;-81
2022/07/10 08:37:19;;;;;;;0.20;0.20;;;;;;;18.18;54.34;102054.41;5169249;28;20057;-81
2022/07/10 08:39:51;;;;;;;0.20;0.20;;;;;;;18.28;54.29;102051.41;5197259;28;20096;-81
2022/07/10 08:42:23;;;;;;;1.05;0.95;;;;;;;18.29;54.62;102055.78;5190846;28;20596;-81
2022/07/10 08:44:54;;;;;;;0.30;0.30;;;;;;;18.22;54.74;102053.34;5206373;28;20397;-80
2022/07/10 08:47:25;;;;;;;0.77;0.77;;;;;;;18.30;54.64;102049.56;5190307;28;20041;-81
2022/07/10 08:50:14;;;;;;;0.20;0.20;;;;;;;18.35;54.33;102045.78;5193198;28;20100;-80
2022/07/10 08:53:12;;;;;;;1.13;0.75;;;;;;;18.38;54.01;102044.81;5206364;28;20648;-81
2022/07/10 08:55:43;;;;;;;0.20;0.20;;;;;;;18.42;53.64;102041.09;5199614;28;20037;-80
2022/07/10 08:58:14;;;;;;;0.20;0.20;;;;;;;18.45;53.72;102046.31;5193785;28;20040;-81
2022/07/10 09:00:44;;;;;;;0.38;0.38;;;;;;;18.46;53.97;102045.38;5204406;28;20052;-80
2022/07/10 09:03:15;;;;;;;0.43;0.43;;;;;;;18.50;54.19;102052.28;5166216;28;20262;-78
2022/07/10 09:05:46;;;;;;;0.38;0.38;;;;;;;18.51;54.03;102047.88;5186306;28;20033;-78
2022/07/10 09:08:30;;;;;;;0.20;0.20;;;;;;;18.55;54.09;102052.13;5212745;28;20040;-78
2022/07/10 09:11:14;;;;;;;0.20;0.20;;;;;;;18.68;53.62;102049.84;5196876;28;20128;-78
2022/07/10 09:13:52;;;;;;;0.40;0.40;;;;;;;18.58;53.88;102052.00;5177536;28;20387;-78
2022/07/10 09:16:33;;;;;;;0.43;0.32;;;;;;;18.57;54.09;102050.28;5190466;28;20096;-78
2022/07/10 09:19:24;;;;;;;0.25;0.25;;;;;;;18.50;54.32;102059.41;5195709;28;20026;-79
2022/07/10 09:22:09;;;;;;;0.75;0.75;;;;;;;18.53;54.44;102053.97;5166880;28;20041;-79
2022/07/10 09:24:54;;;;;;;;;;;;;;;;;;;;;
2022/07/10 09:27:27;;;;;;;0.25;0.25;;;;;;;18.50;53.91;102046.13;5203973;28;20049;-80
2022/07/10 09:30:01;;;;;;;0.30;0.30;;;;;;;18.49;54.43;102052.38;5198893;28;20029;-77
2022/07/10 09:32:31;;;;;;;2.88;1.92;;;;;;;18.51;54.31;102051.38;5191476;28;20057;-79
2022/07/10 09:38:29;;;;;;;;;;;;;;;;;;;;;
2022/07/10 09:41:18;;;;;;;2.75;0.68;;;;;;;18.43;55.99;102045.50;5197469;28;20045;-79
2022/07/10 09:44:18;;;;;;;0.20;0.20;;;;;;;18.51;56.99;102055.84;5194890;28;20033;-80
2022/07/10 09:46:48;;;;;;;3.10;1.15;;;;;;;18.51;57.65;102056.69;5177760;28;20073;-80
2022/07/10 09:49:33;;;;;;;0.30;0.30;;;;;;;18.53;56.98;102051.31;5148938;28;20490;-79
2022/07/10 09:52:20;;;;;;;0.47;0.47;;;;;;;18.62;57.08;102056.25;5147632;28;20052;-81
2022/07/10 09:54:54;;;;;;;0.65;0.55;;;;;;;18.72;56.85;102051.44;5165448;28;20056;-83
2022/07/10 09:57:28;;;;;;;0.40;0.40;;;;;;;18.76;56.53;102058.38;5162625;28;20129;-80
2022/07/10 10:00:05;;;;;;;2.42;2.25;;;;;;;18.76;56.50;102050.38;5188174;28;20033;-80
2022/07/10 10:02:36;;;;;;;3.08;2.05;;;;;;;18.77;56.27;102046.81;5155359;28;20050;-78
2022/07/10 10:05:07;;;;;;;9.55;8.77;;;;;;;18.85;56.75;102042.03;5159861;28;20048;-79
2022/07/10 10:07:39;;;;;;;36.10;23.23;;;;;;;19.01;56.83;102044.94;5175723;28;20072;-79
2022/07/10 10:10:12;;;;;;;2.55;2.35;;;;;;;18.91;57.14;102048.03;5191862;28;20033;-80
2022/07/10 10:12:52;;;;;;;0.32;0.32;;;;;;;18.97;56.62;102046.03;5196053;28;20098;-80
2022/07/10 10:15:24;;;;;;;1.20;1.10;;;;;;;18.95;57.02;102039.03;5173336;28;20044;-79
2022/07/10 10:17:55;;;;;;;2.08;1.90;;;;;;;18.99;56.87;102037.97;5193192;28;20145;-80
2022/07/10 10:20:43;;;;;;;1.08;0.98;;;;;;;19.03;56.00;102043.09;5193003;28;20533;-81
2022/07/10 10:23:20;;;;;;;0.22;0.22;;;;;;;19.02;56.39;102030.72;5174282;28;20335;-81
2022/07/10 10:25:56;;;;;;;0.22;0.22;;;;;;;19.05;56.23;102032.38;5182583;28;20030;-82
2022/07/10 10:28:27;;;;;;;0.35;0.35;;;;;;;19.02;56.54;102029.88;5190402;28;20034;-84
2022/07/10 10:30:59;;;;;;;0.50;0.50;;;;;;;19.12;56.90;102025.91;5190123;28;20818;-81
2022/07/10 10:33:40;;;;;;;0.60;0.57;;;;;;;19.15;57.30;102019.56;5206734;28;20149;-80
2022/07/10 10:36:13;;;;;;;0.50;0.50;;;;;;;19.13;57.20;102013.44;5180615;28;20041;-80
2022/07/10 10:38:51;;;;;;;0.30;0.30;;;;;;;19.18;57.96;102017.66;5177157;28;20038;-80
2022/07/10 10:41:29;;;;;;;0.22;0.22;;;;;;;19.27;57.24;102019.03;5162883;28;20524;-81
2022/07/10 10:44:13;;;;;;;0.20;0.20;;;;;;;19.30;56.78;102002.94;5202843;28;20029;-81
2022/07/10 10:46:49;;;;;;;0.30;0.30;;;;;;;19.35;56.47;102014.25;5192292;28;20115;-81
2022/07/10 10:49:25;;;;;;;0.40;0.40;;;;;;;19.41;56.33;102005.13;5187656;28;20076;-81
2022/07/10 10:52:03;;;;;;;0.20;0.20;;;;;;;19.41;57.02;102004.28;5208700;28;20036;-81
2022/07/10 10:55:00;;;;;;;0.45;0.45;;;;;;;19.54;56.58;102001.94;5204941;28;20044;-81
2022/07/10 10:57:31;;;;;;;0.20;0.20;;;;;;;19.54;56.29;101999.28;5178372;28;20061;-81
2022/07/10 11:00:07;;;;;;;1.08;0.70;;;;;;;19.55;56.17;101998.31;5190321;28;20025;-81
2022/07/10 11:02:44;;;;;;;0.55;0.55;;;;;;;19.47;56.66;101994.22;5203948;28;20079;-81
2022/07/10 11:05:34;;;;;;;0.22;0.22;;;;;;;19.52;56.38;101996.66;5188611;28;20021;-81
2022/07/10 11:08:07;;;;;;;0.20;0.20;;;;;;;19.62;55.87;101999.81;5179603;28;20050;-81
2022/07/10 11:10:43;;;;;;;0.60;0.60;;;;;;;19.65;55.98;101996.97;5190200;28;20049;-81
2022/07/10 11:13:18;;;;;;;0.30;0.30;;;;;;;19.67;55.71;101995.97;5189302;28;20074;-81
2022/07/10 11:15:52;;;;;;;0.70;0.70;;;;;;;19.74;55.70;101996.56;5203107;28;20080;-80
2022/07/10 11:18:22;;;;;;;0.20;0.20;;;;;;;19.78;55.65;101992.84;5184582;28;20025;-80
2022/07/10 11:20:53;;;;;;;0.30;0.30;;;;;;;19.82;55.35;101977.59;5198710;28;20075;-80
2022/07/10 11:23:29;;;;;;;0.20;0.20;;;;;;;19.75;55.93;101977.00;5172182;28;20060;-80
2022/07/10 11:26:08;;;;;;;0.52;0.52;;;;;;;19.73;55.96;101973.53;5183737;28;20105;-80
2022/07/10 11:28:55;;;;;;;0.38;0.38;;;;;;;19.88;55.16;101980.00;5170794;28;20104;-80
2022/07/10 11:31:37;;;;;;;0.50;0.50;;;;;;;19.72;55.68;101981.59;5178973;28;20065;-80
2022/07/10 11:34:15;;;;;;;0.20;0.20;;;;;;;19.81;54.91;101987.38;5209504;28;20037;-81
2022/07/10 11:36:47;;;;;;;0.20;0.20;;;;;;;19.70;55.16;101987.00;5205075;28;20501;-80
2022/07/10 11:39:18;;;;;;;0.30;0.30;;;;;;;19.71;55.11;101986.03;5182164;28;20052;-80
2022/07/10 11:41:48;;;;;;;31.00;1.55;;;;;;;19.61;55.17;101982.09;5207007;28;20045;-79
2022/07/10 11:44:20;;;;;;;0.90;0.90;;;;;;;19.55;55.32;101974.38;5169332;28;20029;-80
2022/07/10 11:46:53;;;;;;;0.20;0.20;;;;;;;19.68;54.98;101975.56;5195658;28;20037;-80
2022/07/10 11:49:24;;;;;;;0.20;0.20;;;;;;;19.66;55.12;101969.44;5215501;28;20029;-80
2022/07/10 11:52:01;;;;;;;0.32;0.32;;;;;;;19.70;55.66;101956.84;5189940;28;20044;-79
2022/07/10 11:54:31;;;;;;;0.52;0.40;;;;;;;19.61;55.93;101958.13;5196956;28;20061;-79
2022/07/10 11:57:08;;;;;;;0.20;0.20;;;;;;;19.77;55.97;101950.28;5212930;28;20342;-80
2022/07/10 11:59:38;;;;;;;0.20;0.20;;;;;;;19.87;55.26;101951.63;5216132;28;20121;-80
2022/07/10 12:02:09;;;;;;;1.67;0.38;;;;;;;19.99;54.23;101947.53;5214492;28;20021;-79
2022/07/10 12:04:39;;;;;;;1.25;0.50;;;;;;;20.04;54.19;101950.81;5188512;28;20037;-79
2022/07/10 12:07:12;;;;;;;0.20;0.20;;;;;;;20.01;54.16;101953.66;5213988;28;20057;-80
2022/07/10 12:09:52;;;;;;;0.40;0.40;;;;;;;20.06;53.91;101950.78;5211583;28;20097;-80
2022/07/10 12:12:23;;;;;;;0.30;0.30;;;;;;;20.04;54.22;101949.97;5176537;28;20022;-80
2022/07/10 12:14:53;;;;;;;0.30;0.30;;;;;;;20.12;54.21;101948.66;5195893;28;20257;-80